createdAt,value
2023-01-29T00:02:25.477Z,1.80
2023-01-29T00:04:53.742Z,1.64
2023-01-29T00:07:24.754Z,1.71
2023-01-29T00:09:53.223Z,1.68
2023-01-29T00:12:20.974Z,1.66
2023-01-29T00:14:48.423Z,1.64
2023-01-29T00:17:15.953Z,1.69
2023-01-29T00:19:44.186Z,1.80
2023-01-29T00:22:11.560Z,1.77
2023-01-29T00:24:38.909Z,1.84
2023-01-29T00:27:06.589Z,1.82
2023-01-29T00:29:34.152Z,1.71
2023-01-29T00:32:01.776Z,1.64
2023-01-29T00:34:29.561Z,1.58
2023-01-29T00:37:04.752Z,1.69
2023-01-29T00:39:47.498Z,1.72
2023-01-29T00:42:34.285Z,1.81
2023-01-29T00:45:02.145Z,1.74
2023-01-29T00:47:36.520Z,1.74
2023-01-29T00:50:11.195Z,1.69
2023-01-29T00:52:41.096Z,1.75
2023-01-29T00:55:11.459Z,1.64
2023-01-29T00:57:39.174Z,1.64
2023-01-29T01:00:10.969Z,1.72
2023-01-29T01:02:58.013Z,1.65
2023-01-29T01:05:27.306Z,1.63
2023-01-29T01:07:57.589Z,1.68
2023-01-29T01:10:32.650Z,1.43
2023-01-29T01:13:04.141Z,1.33
2023-01-29T01:15:36.029Z,1.37
2023-01-29T01:18:04.745Z,1.56
2023-01-29T01:20:34.855Z,1.62
2023-01-29T01:23:03.574Z,1.39
2023-01-29T01:25:31.551Z,1.47
2023-01-29T01:28:03.072Z,1.26
2023-01-29T01:30:31.010Z,1.30
2023-01-29T01:32:59.442Z,1.37
2023-01-29T01:35:27.034Z,1.37
2023-01-29T01:37:54.887Z,1.58
2023-01-29T01:40:25.222Z,1.55
2023-01-29T01:42:58.525Z,1.42
2023-01-29T01:45:30.621Z,1.52
2023-01-29T01:48:13.922Z,1.29
2023-01-29T01:50:58.755Z,1.40
2023-01-29T01:53:34.543Z,1.33
2023-01-29T01:56:06.792Z,1.50
2023-01-29T01:58:42.477Z,1.37
2023-01-29T02:01:12.537Z,1.27
2023-01-29T02:04:14.936Z,1.28
2023-01-29T02:07:01.985Z,1.22
2023-01-29T02:09:35.832Z,1.24
2023-01-29T02:12:11.438Z,1.05
2023-01-29T02:14:41.297Z,1.14
2023-01-29T02:17:15.496Z,1.29
2023-01-29T02:20:14.490Z,1.04
2023-01-29T02:23:09.450Z,0.99
2023-01-29T02:26:14.414Z,0.86
2023-01-29T02:28:52.805Z,0.80
2023-01-29T02:31:35.045Z,0.77
2023-01-29T02:34:24.795Z,0.83
2023-01-29T02:37:09.564Z,0.81
2023-01-29T02:39:48.931Z,0.72
2023-01-29T02:42:36.062Z,0.71
2023-01-29T02:45:34.797Z,0.70
2023-01-29T02:48:02.874Z,0.78
2023-01-29T02:50:49.338Z,0.71
2023-01-29T02:53:26.035Z,0.70
2023-01-29T02:55:56.413Z,0.78
2023-01-29T02:58:48.062Z,0.73
2023-01-29T03:01:38.235Z,0.72
2023-01-29T03:04:12.938Z,0.79
2023-01-29T03:06:50.680Z,0.80
2023-01-29T03:09:28.217Z,0.83
2023-01-29T03:12:03.234Z,0.75
2023-01-29T03:14:58.797Z,0.86
2023-01-29T03:17:32.792Z,0.83
2023-01-29T03:20:02.546Z,0.96
2023-01-29T03:22:31.694Z,1.06
2023-01-29T03:25:21.573Z,0.90
2023-01-29T03:28:15.615Z,1.12
2023-01-29T03:31:11.343Z,0.83
2023-01-29T03:33:45.916Z,0.83
2023-01-29T03:36:18.854Z,0.79
2023-01-29T03:38:46.713Z,0.87
2023-01-29T03:41:37.627Z,0.80
2023-01-29T03:44:22.006Z,0.94
2023-01-29T03:46:56.805Z,0.74
2023-01-29T03:50:00.224Z,0.64
2023-01-29T03:52:30.833Z,0.67
2023-01-29T03:55:07.011Z,0.81
2023-01-29T03:58:00.983Z,0.70
2023-01-29T04:00:35.069Z,0.64
2023-01-29T04:03:11.530Z,0.69
2023-01-29T04:06:22.361Z,0.69
2023-01-29T04:09:04.007Z,0.73
2023-01-29T04:11:35.334Z,0.70
2023-01-29T04:14:03.413Z,0.72
2023-01-29T04:16:37.264Z,0.71
2023-01-29T04:19:06.800Z,0.67
2023-01-29T04:21:37.696Z,0.66
2023-01-29T04:24:08.045Z,0.78
2023-01-29T04:27:04.872Z,0.87
2023-01-29T04:29:50.514Z,0.97
2023-01-29T04:32:24.209Z,0.61
2023-01-29T04:35:11.961Z,0.64
2023-01-29T04:37:56.697Z,0.58
2023-01-29T04:41:03.571Z,0.59
2023-01-29T04:44:06.655Z,0.66
2023-01-29T04:46:48.885Z,0.62
2023-01-29T04:49:34.750Z,0.62
2023-01-29T04:52:13.046Z,0.58
2023-01-29T04:54:54.953Z,0.54
2023-01-29T04:57:46.337Z,0.61
2023-01-29T05:00:22.690Z,0.47
2023-01-29T05:02:51.243Z,0.50
2023-01-29T05:05:20.263Z,0.42
2023-01-29T05:07:48.676Z,0.47
2023-01-29T05:10:20.465Z,0.39
2023-01-29T05:12:53.141Z,0.61
2023-01-29T05:15:29.283Z,0.49
2023-01-29T05:18:01.871Z,0.52
2023-01-29T05:20:35.702Z,0.49
2023-01-29T05:23:03.605Z,0.53
2023-01-29T05:25:33.225Z,0.54
2023-01-29T05:28:19.117Z,0.59
2023-01-29T05:30:49.508Z,0.48
2023-01-29T05:33:29.057Z,0.57
2023-01-29T05:35:59.428Z,0.50
2023-01-29T05:38:27.117Z,0.51
2023-01-29T05:40:54.880Z,0.50
2023-01-29T05:43:24.801Z,0.55
2023-01-29T05:45:57.314Z,0.42
2023-01-29T05:48:27.692Z,0.51
2023-01-29T05:51:01.121Z,0.49
2023-01-29T05:53:29.557Z,0.51
2023-01-29T05:56:00.115Z,0.47
2023-01-29T05:58:27.748Z,0.51
2023-01-29T06:00:55.559Z,0.52
2023-01-29T06:03:23.263Z,0.53
2023-01-29T06:05:50.719Z,0.60
2023-01-29T06:08:18.268Z,0.48
2023-01-29T06:10:46.801Z,0.55
2023-01-29T06:13:14.274Z,0.56
2023-01-29T06:15:41.990Z,0.53
2023-01-29T06:18:09.740Z,0.51
2023-01-29T06:20:37.834Z,0.51
2023-01-29T06:23:05.908Z,0.55
2023-01-29T06:25:33.769Z,0.67
2023-01-29T06:28:01.308Z,0.61
2023-01-29T06:30:28.934Z,0.65
2023-01-29T06:33:01.692Z,0.63
2023-01-29T06:35:29.085Z,0.66
2023-01-29T06:37:56.980Z,0.92
2023-01-29T06:40:24.907Z,0.84
2023-01-29T06:42:52.378Z,0.77
2023-01-29T06:45:20.183Z,0.80
2023-01-29T06:47:47.724Z,0.90
2023-01-29T06:50:15.776Z,0.66
2023-01-29T06:52:44.245Z,0.77
2023-01-29T06:55:12.089Z,0.79
2023-01-29T06:57:40.151Z,0.88
2023-01-29T07:00:09.989Z,0.97
2023-01-29T07:02:37.697Z,0.88
2023-01-29T07:05:05.520Z,1.03
2023-01-29T07:07:35.768Z,1.18
2023-01-29T07:10:03.690Z,1.11
2023-01-29T07:12:31.284Z,1.22
2023-01-29T07:14:58.949Z,1.21
2023-01-29T07:17:26.797Z,1.33
2023-01-29T07:19:54.827Z,1.14
2023-01-29T07:22:22.614Z,0.96
2023-01-29T07:24:50.250Z,1.09
2023-01-29T07:27:17.834Z,1.06
2023-01-29T07:29:45.782Z,1.33
2023-01-29T07:32:13.267Z,1.51
2023-01-29T07:34:40.809Z,1.33
2023-01-29T07:37:08.684Z,1.37
2023-01-29T07:39:36.202Z,1.19
2023-01-29T07:42:03.813Z,1.22
2023-01-29T07:44:31.550Z,1.10
2023-01-29T07:46:58.984Z,1.24
2023-01-29T07:49:26.381Z,1.19
2023-01-29T07:51:54.114Z,1.03
2023-01-29T07:54:21.599Z,1.32
2023-01-29T07:56:49.085Z,1.28
2023-01-29T07:59:17.178Z,1.31
2023-01-29T08:01:44.768Z,1.40
2023-01-29T08:04:12.610Z,1.25
2023-01-29T08:06:40.050Z,1.19
2023-01-29T08:09:08.588Z,1.27
2023-01-29T08:11:36.364Z,1.35
2023-01-29T08:14:03.824Z,1.20
2023-01-29T08:16:31.329Z,1.53
2023-01-29T08:18:59.173Z,1.82
2023-01-29T08:21:26.725Z,1.90
2023-01-29T08:23:54.191Z,1.83
2023-01-29T08:26:22.070Z,1.84
2023-01-29T08:28:49.901Z,1.87
2023-01-29T08:31:20.682Z,1.59
2023-01-29T08:33:49.178Z,1.88
2023-01-29T08:36:16.706Z,2.01
2023-01-29T08:38:44.181Z,2.26
2023-01-29T08:41:12.008Z,2.46
2023-01-29T08:43:40.562Z,2.06
2023-01-29T08:46:08.734Z,2.19
2023-01-29T08:48:36.649Z,2.33
2023-01-29T08:51:04.693Z,2.34
2023-01-29T08:53:32.776Z,2.51
2023-01-29T08:56:00.959Z,2.73
2023-01-29T08:58:28.367Z,2.29
2023-01-29T09:00:55.899Z,2.60
2023-01-29T09:03:23.613Z,2.59
2023-01-29T09:05:51.084Z,2.01
2023-01-29T09:08:18.606Z,2.21
2023-01-29T09:10:46.398Z,2.12
2023-01-29T09:13:13.798Z,2.41
2023-01-29T09:15:41.238Z,2.72
2023-01-29T09:18:09.061Z,3.05
2023-01-29T09:20:38.238Z,2.35
2023-01-29T09:23:08.833Z,2.52
2023-01-29T09:25:37.013Z,2.35
2023-01-29T09:28:04.878Z,2.74
2023-01-29T09:30:34.619Z,3.07
2023-01-29T09:33:02.461Z,3.18
2023-01-29T09:35:30.162Z,3.20
2023-01-29T09:37:57.849Z,3.06
2023-01-29T09:40:40.900Z,3.21
2023-01-29T09:43:19.406Z,2.79
2023-01-29T09:46:07.311Z,2.52
2023-01-29T09:48:36.402Z,2.93
2023-01-29T09:51:15.066Z,3.05
2023-01-29T09:54:18.502Z,3.07
2023-01-29T09:56:48.322Z,3.27
2023-01-29T09:59:18.165Z,2.94
2023-01-29T10:01:55.065Z,2.84
2023-01-29T10:04:31.671Z,2.85
2023-01-29T10:07:23.816Z,2.86
2023-01-29T10:09:54.457Z,3.22
2023-01-29T10:12:57.327Z,2.89
2023-01-29T10:15:31.146Z,3.09
2023-01-29T10:18:20.153Z,2.72
2023-01-29T10:21:25.126Z,2.96
2023-01-29T10:24:23.243Z,2.88
2023-01-29T10:26:52.556Z,3.14
2023-01-29T10:29:22.090Z,2.41
2023-01-29T10:31:57.132Z,2.53
2023-01-29T10:34:38.532Z,2.76
2023-01-29T10:37:24.930Z,2.36
2023-01-29T10:39:52.895Z,2.90
2023-01-29T10:42:35.452Z,2.86
2023-01-29T10:45:24.737Z,2.80
2023-01-29T10:48:23.386Z,3.01
2023-01-29T10:51:00.538Z,2.22
2023-01-29T10:53:40.500Z,2.69
2023-01-29T10:56:24.045Z,2.68
2023-01-29T10:59:25.632Z,2.92
2023-01-29T11:01:59.277Z,2.33
2023-01-29T11:04:28.359Z,2.19
2023-01-29T11:06:56.264Z,2.30
2023-01-29T11:09:36.534Z,2.60
2023-01-29T11:12:19.480Z,2.75
2023-01-29T11:15:05.414Z,2.89
2023-01-29T11:17:33.083Z,2.72
2023-01-29T11:20:00.781Z,2.53
2023-01-29T11:22:30.467Z,2.20
2023-01-29T11:25:18.748Z,2.60
2023-01-29T11:27:55.209Z,2.40
2023-01-29T11:30:41.849Z,2.33
2023-01-29T11:33:19.651Z,2.32
2023-01-29T11:35:48.074Z,2.34
2023-01-29T11:38:28.354Z,2.30
2023-01-29T11:41:08.007Z,2.41
2023-01-29T11:43:35.586Z,2.37
2023-01-29T11:46:13.467Z,2.56
2023-01-29T11:48:51.544Z,2.12
2023-01-29T11:51:28.687Z,2.40
2023-01-29T11:54:00.589Z,2.28
2023-01-29T11:56:42.174Z,2.27
2023-01-29T11:59:40.623Z,2.35
2023-01-29T12:02:23.271Z,2.63
2023-01-29T12:04:51.357Z,2.48
2023-01-29T12:07:19.584Z,2.41
2023-01-29T12:09:56.261Z,2.43
2023-01-29T12:12:29.521Z,2.49
2023-01-29T12:15:26.258Z,2.57
2023-01-29T12:18:03.002Z,2.47
2023-01-29T12:20:38.512Z,2.63
2023-01-29T12:23:25.200Z,2.22
2023-01-29T12:26:17.900Z,2.64
2023-01-29T12:29:23.253Z,2.49
2023-01-29T12:32:16.629Z,2.38
2023-01-29T12:34:47.082Z,2.71
2023-01-29T12:37:49.143Z,2.75
2023-01-29T12:40:19.489Z,2.75
2023-01-29T12:42:56.942Z,2.71
2023-01-29T12:45:27.718Z,2.43
2023-01-29T12:47:59.271Z,2.50
2023-01-29T12:50:32.427Z,2.43
2023-01-29T12:53:01.766Z,2.55
2023-01-29T12:55:40.253Z,2.64
2023-01-29T12:58:23.586Z,2.63
2023-01-29T13:00:54.442Z,2.35
2023-01-29T13:03:31.107Z,2.44
2023-01-29T13:06:20.354Z,2.46
2023-01-29T13:09:09.702Z,2.30
2023-01-29T13:11:58.544Z,2.35
2023-01-29T13:14:31.250Z,2.37
2023-01-29T13:17:20.581Z,2.27
2023-01-29T13:19:52.773Z,2.31
2023-01-29T13:22:27.483Z,2.08
2023-01-29T13:25:04.674Z,2.24
2023-01-29T13:27:36.606Z,2.16
2023-01-29T13:30:05.755Z,2.17
2023-01-29T13:32:35.884Z,2.14
2023-01-29T13:35:06.660Z,2.14
2023-01-29T13:37:37.803Z,1.98
2023-01-29T13:40:07.398Z,1.72
2023-01-29T13:42:47.986Z,1.73
2023-01-29T13:45:45.225Z,1.70
2023-01-29T13:48:27.655Z,1.44
2023-01-29T13:50:57.576Z,1.54
2023-01-29T13:53:31.189Z,1.38
2023-01-29T13:56:42.135Z,1.61
2023-01-29T13:59:45.064Z,1.45
2023-01-29T14:02:27.731Z,1.32
2023-01-29T14:05:29.791Z,1.29
2023-01-29T14:08:02.139Z,1.52
2023-01-29T14:10:32.557Z,1.40
2023-01-29T14:13:18.508Z,1.48
2023-01-29T14:16:12.151Z,1.61
2023-01-29T14:18:48.900Z,1.60
2023-01-29T14:21:16.989Z,1.40
2023-01-29T14:23:53.507Z,1.46
2023-01-29T14:26:30.447Z,1.45
2023-01-29T14:29:02.482Z,1.66
2023-01-29T14:31:41.262Z,1.65
2023-01-29T14:34:15.089Z,1.72
2023-01-29T14:36:45.506Z,1.70
2023-01-29T14:39:31.643Z,1.83
2023-01-29T14:42:02.907Z,1.54
2023-01-29T14:44:46.001Z,1.62
2023-01-29T14:47:32.599Z,1.60
2023-01-29T14:50:29.129Z,1.56
2023-01-29T14:53:15.616Z,1.70
2023-01-29T14:56:04.396Z,1.68
2023-01-29T14:58:46.861Z,1.63
2023-01-29T15:01:26.679Z,1.39
2023-01-29T15:04:13.227Z,1.50
2023-01-29T15:06:43.696Z,1.51
2023-01-29T15:09:35.896Z,1.52
2023-01-29T15:12:17.941Z,1.48
2023-01-29T15:15:05.808Z,1.43
2023-01-29T15:17:43.338Z,1.54
2023-01-29T15:20:41.414Z,1.48
2023-01-29T15:23:32.815Z,1.26
2023-01-29T15:26:17.360Z,1.06
2023-01-29T15:28:54.801Z,1.34
2023-01-29T15:31:28.505Z,1.22
2023-01-29T15:34:04.991Z,1.36
2023-01-29T15:36:33.311Z,1.38
2023-01-29T15:39:09.587Z,1.25
2023-01-29T15:41:38.836Z,1.10
2023-01-29T15:44:33.296Z,1.15
2023-01-29T15:47:01.742Z,1.08
2023-01-29T15:49:32.919Z,1.31
2023-01-29T15:52:08.308Z,1.02
2023-01-29T15:54:36.198Z,0.98
2023-01-29T15:57:04.335Z,1.06
2023-01-29T15:59:39.295Z,0.93
2023-01-29T16:02:33.187Z,0.99
2023-01-29T16:05:01.847Z,0.93
2023-01-29T16:07:30.163Z,1.03
2023-01-29T16:09:59.783Z,1.11
2023-01-29T16:12:28.540Z,1.07
2023-01-29T16:14:57.086Z,1.02
2023-01-29T16:17:25.606Z,0.96
2023-01-29T16:19:58.603Z,0.99
2023-01-29T16:22:37.591Z,1.00
2023-01-29T16:25:11.082Z,1.08
2023-01-29T16:27:43.244Z,1.04
2023-01-29T16:30:16.900Z,1.03
2023-01-29T16:32:46.169Z,1.10
2023-01-29T16:35:17.740Z,1.07
2023-01-29T16:37:50.721Z,0.88
2023-01-29T16:40:32.547Z,0.89
2023-01-29T16:43:26.224Z,0.89
2023-01-29T16:46:04.534Z,0.80
2023-01-29T16:48:34.982Z,0.61
2023-01-29T16:51:06.507Z,0.73
2023-01-29T16:53:35.748Z,0.83
2023-01-29T16:56:07.155Z,0.86
2023-01-29T16:58:35.608Z,0.80
2023-01-29T17:01:09.239Z,0.66
2023-01-29T17:03:39.106Z,0.80
2023-01-29T17:06:12.243Z,0.81
2023-01-29T17:08:43.053Z,0.76
2023-01-29T17:11:23.127Z,0.78
2023-01-29T17:13:50.821Z,0.72
2023-01-29T17:16:34.516Z,0.84
2023-01-29T17:19:11.265Z,0.71
2023-01-29T17:21:39.581Z,0.75
2023-01-29T17:24:07.395Z,0.76
2023-01-29T17:26:34.869Z,0.73
2023-01-29T17:29:03.065Z,0.68
2023-01-29T17:31:30.735Z,0.73
2023-01-29T17:33:58.453Z,0.58
2023-01-29T17:36:26.463Z,0.69
2023-01-29T17:38:54.062Z,0.51
2023-01-29T17:41:25.744Z,0.44
2023-01-29T17:43:53.780Z,0.57
2023-01-29T17:46:21.700Z,0.67
2023-01-29T17:48:49.940Z,0.65
2023-01-29T17:51:18.415Z,0.57
2023-01-29T17:53:47.213Z,0.46
2023-01-29T17:56:23.500Z,0.46
2023-01-29T17:58:51.810Z,0.40
2023-01-29T18:01:19.510Z,0.41
2023-01-29T18:03:47.584Z,0.53
2023-01-29T18:06:28.378Z,0.48
2023-01-29T18:08:56.990Z,0.50
2023-01-29T18:11:24.863Z,0.40
2023-01-29T18:13:52.955Z,0.34
2023-01-29T18:16:22.811Z,0.40
2023-01-29T18:18:51.896Z,0.40
2023-01-29T18:21:19.645Z,0.37
2023-01-29T18:23:47.769Z,0.45
2023-01-29T18:26:16.946Z,0.53
2023-01-29T18:28:45.176Z,0.64
2023-01-29T18:31:14.465Z,0.66
2023-01-29T18:33:42.574Z,0.67
2023-01-29T18:36:10.290Z,0.63
2023-01-29T18:38:38.325Z,0.66
2023-01-29T18:41:10.570Z,0.71
2023-01-29T18:43:40.353Z,0.74
2023-01-29T18:46:08.985Z,0.84
2023-01-29T18:48:37.215Z,0.88
2023-01-29T18:51:05.821Z,0.58
2023-01-29T18:53:33.511Z,0.66
2023-01-29T18:56:05.505Z,0.65
2023-01-29T18:58:38.144Z,0.66
2023-01-29T19:01:11.693Z,0.86
2023-01-29T19:03:41.046Z,0.77
2023-01-29T19:06:10.644Z,0.78
2023-01-29T19:08:39.504Z,0.43
2023-01-29T19:11:09.082Z,0.11
2023-01-29T19:13:38.075Z,0.32
2023-01-29T19:16:09.098Z,0.22
2023-01-29T19:18:37.462Z,0.25
2023-01-29T19:21:10.799Z,0.22
2023-01-29T19:23:40.502Z,0.16
2023-01-29T19:26:09.251Z,0.06
2023-01-29T19:28:37.051Z,0.03
2023-01-29T19:31:05.128Z,0.07
2023-01-29T19:33:33.485Z,0.15
2023-01-29T19:36:01.918Z,0.22
2023-01-29T19:38:33.449Z,0.21
2023-01-29T19:41:01.254Z,0.16
2023-01-29T19:43:33.105Z,0.15
2023-01-29T19:46:02.083Z,0.25
2023-01-29T19:48:30.546Z,-0.07
2023-01-29T19:51:00.835Z,0.07
2023-01-29T19:53:29.186Z,-0.11
2023-01-29T19:56:09.481Z,-0.21
2023-01-29T19:58:38.039Z,0.00
2023-01-29T20:01:13.378Z,-0.02
2023-01-29T20:03:46.578Z,0.05
2023-01-29T20:06:16.905Z,-0.08
2023-01-29T20:08:48.046Z,0.05
2023-01-29T20:11:17.938Z,0.06
2023-01-29T20:13:51.043Z,0.12
2023-01-29T20:16:19.675Z,-0.07
2023-01-29T20:18:48.362Z,0.06
2023-01-29T20:21:18.320Z,-0.10
2023-01-29T20:23:49.420Z,-0.09
2023-01-29T20:26:18.253Z,0.08
2023-01-29T20:28:47.981Z,0.08
2023-01-29T20:31:16.623Z,0.01
2023-01-29T20:33:44.851Z,0.11
2023-01-29T20:36:14.697Z,0.04
2023-01-29T20:38:42.492Z,0.08
2023-01-29T20:41:14.667Z,0.25
2023-01-29T20:43:43.135Z,0.25
2023-01-29T20:46:12.104Z,0.32
2023-01-29T20:48:41.995Z,0.38
2023-01-29T20:51:13.768Z,0.45
2023-01-29T20:53:46.052Z,0.47
2023-01-29T20:56:15.980Z,0.52
2023-01-29T20:58:46.609Z,0.62
2023-01-29T21:01:19.677Z,0.61
2023-01-29T21:03:48.239Z,0.55
2023-01-29T21:06:16.260Z,0.66
2023-01-29T21:08:44.014Z,0.66
2023-01-29T21:11:11.946Z,0.62
2023-01-29T21:13:39.967Z,0.64
2023-01-29T21:16:07.508Z,0.61
2023-01-29T21:18:35.418Z,0.71
2023-01-29T21:21:03.201Z,0.73
2023-01-29T21:23:31.306Z,0.74
2023-01-29T21:26:06.490Z,0.73
2023-01-29T21:28:34.808Z,0.74
2023-01-29T21:31:05.331Z,0.66
2023-01-29T21:33:34.399Z,0.75
2023-01-29T21:36:03.388Z,0.73
2023-01-29T21:38:31.428Z,0.84
2023-01-29T21:41:04.551Z,0.75
2023-01-29T21:43:32.582Z,0.79
2023-01-29T21:46:11.480Z,0.78
2023-01-29T21:48:40.287Z,0.81
2023-01-29T21:51:08.414Z,0.86
2023-01-29T21:53:36.796Z,0.84
2023-01-29T21:56:06.077Z,0.84
2023-01-29T21:58:33.662Z,0.83
2023-01-29T22:01:36.724Z,0.86
2023-01-29T22:03:48.916Z,0.82
2023-01-29T22:06:16.456Z,0.82
2023-01-29T22:08:43.885Z,0.80
2023-01-29T22:11:11.724Z,0.80
2023-01-29T22:13:39.389Z,0.78
2023-01-29T22:16:07.157Z,0.74
2023-01-29T22:18:35.178Z,0.85
2023-01-29T22:21:03.040Z,0.78
2023-01-29T22:23:31.337Z,0.80
2023-01-29T22:26:03.590Z,0.83
2023-01-29T22:28:31.136Z,0.81
2023-01-29T22:31:03.253Z,0.79
2023-01-29T22:33:31.369Z,0.69
2023-01-29T22:35:59.645Z,0.79
2023-01-29T22:38:27.609Z,0.79
2023-01-29T22:40:56.881Z,0.77
2023-01-29T22:43:26.028Z,0.79
2023-01-29T22:45:53.414Z,0.79
2023-01-29T22:48:22.775Z,0.80
2023-01-29T22:51:11.880Z,0.81
2023-01-29T22:53:39.286Z,0.81
2023-01-29T22:56:07.890Z,0.78
2023-01-29T22:58:35.731Z,0.79
2023-01-29T23:01:03.928Z,0.80
2023-01-29T23:03:31.596Z,0.70
2023-01-29T23:05:59.145Z,0.78
2023-01-29T23:08:27.488Z,0.77
2023-01-29T23:10:55.657Z,0.75
2023-01-29T23:13:23.160Z,0.78
2023-01-29T23:15:59.253Z,0.69
2023-01-29T23:18:27.002Z,0.66
2023-01-29T23:20:57.994Z,0.74
2023-01-29T23:23:25.567Z,0.69
2023-01-29T23:26:16.368Z,0.68
2023-01-29T23:28:44.009Z,0.61
2023-01-29T23:31:12.451Z,0.63
2023-01-29T23:33:40.145Z,0.62
2023-01-29T23:36:08.617Z,0.63
2023-01-29T23:38:36.404Z,0.61
2023-01-29T23:41:04.021Z,0.65
2023-01-29T23:43:32.313Z,0.64
2023-01-29T23:46:00.291Z,0.63
2023-01-29T23:48:28.000Z,0.56
2023-01-29T23:50:55.501Z,0.59
2023-01-29T23:53:23.444Z,0.57
2023-01-29T23:56:02.516Z,0.63
2023-01-29T23:58:30.963Z,0.60
